Terminal Aerodrome Forecast
Issued by NWS

Home | Current Version | Previous Version | Text Only | Print | Product List | Glossary On
Versions: 1 2 3 4 5 6 7 8 9 10 11 12 13
000
FTAK31 PAJN 281100
TAFAGY
TAF
PAGY 281133Z 2812/2912 00000KT P6SM SCT040 OVC070
     FM281500 04004KT P6SM SCT070
     FM281900 21005KT P6SM FEW070
     FM282200 21010KT P6SM FEW070
     FM290400 21005KT P6SM FEW100
     FM290900 00000KT P6SM FEW100
      AMD LTD TO CLD VIS AND WIND=

USA.gov is the U.S. government's official web portal to all federal, state and local government web resources and services.